createdAt,value
2022-11-21T00:00:19.699Z,28.67
2022-11-21T00:02:47.140Z,27.57
2022-11-21T00:05:14.803Z,26.67
2022-11-21T00:07:42.273Z,28.33
2022-11-21T00:10:11.393Z,27.33
2022-11-21T00:12:38.969Z,27.73
2022-11-21T00:15:07.610Z,28.17
2022-11-21T00:17:35.854Z,26.37
2022-11-21T00:20:03.267Z,25.20
2022-11-21T00:22:31.908Z,26.97
2022-11-21T00:24:59.898Z,25.27
2022-11-21T00:27:28.685Z,27.67
2022-11-21T00:29:56.139Z,27.13
2022-11-21T00:32:23.594Z,26.50
2022-11-21T00:34:51.054Z,26.77
2022-11-21T00:37:18.495Z,27.03
2022-11-21T00:39:45.921Z,26.40
2022-11-21T00:42:13.374Z,24.87
2022-11-21T00:44:42.216Z,26.07
2022-11-21T00:47:09.620Z,26.70
2022-11-21T00:49:37.007Z,24.97
2022-11-21T00:52:04.728Z,24.73
2022-11-21T00:54:32.131Z,24.33
2022-11-21T00:56:59.673Z,25.57
2022-11-21T00:59:27.158Z,24.87
2022-11-21T01:01:55.898Z,25.47
2022-11-21T01:04:23.458Z,25.00
2022-11-21T01:06:50.876Z,25.27
2022-11-21T01:09:18.291Z,26.10
2022-11-21T01:11:46.021Z,24.07
2022-11-21T01:14:13.423Z,23.53
2022-11-21T01:16:40.855Z,25.70
2022-11-21T01:19:09.829Z,26.23
2022-11-21T01:21:37.287Z,25.93
2022-11-21T01:24:05.066Z,25.40
2022-11-21T01:26:33.501Z,25.63
2022-11-21T01:29:01.743Z,25.60
2022-11-21T01:31:31.231Z,25.83
2022-11-21T01:34:00.014Z,25.40
2022-11-21T01:36:30.843Z,25.73
2022-11-21T01:38:59.556Z,25.37
2022-11-21T01:41:31.066Z,26.07
2022-11-21T01:43:58.684Z,25.23
2022-11-21T01:46:27.032Z,25.57
2022-11-21T01:48:56.641Z,24.53
2022-11-21T01:51:27.205Z,26.03
2022-11-21T01:53:59.229Z,22.97
2022-11-21T01:56:28.154Z,23.40
2022-11-21T01:58:58.504Z,22.87
2022-11-21T02:01:26.025Z,22.80
2022-11-21T02:03:54.040Z,24.20
2022-11-21T02:06:21.927Z,24.20
2022-11-21T02:08:49.486Z,24.33
2022-11-21T02:11:23.486Z,24.53
2022-11-21T02:13:50.930Z,24.23
2022-11-21T02:16:18.367Z,24.30
2022-11-21T02:18:45.810Z,24.17
2022-11-21T02:21:19.215Z,24.53
2022-11-21T02:23:50.842Z,24.70
2022-11-21T02:26:19.695Z,24.00
2022-11-21T02:28:47.171Z,25.03
2022-11-21T02:31:14.603Z,24.33
2022-11-21T02:33:42.014Z,23.73
2022-11-21T02:36:38.776Z,24.43
2022-11-21T02:39:07.105Z,24.73
2022-11-21T02:41:36.695Z,24.07
2022-11-21T02:44:06.590Z,24.07
2022-11-21T02:46:34.822Z,24.10
2022-11-21T02:49:05.573Z,24.17
2022-11-21T02:51:33.029Z,24.53
2022-11-21T02:54:00.427Z,24.80
2022-11-21T02:56:28.005Z,24.53
2022-11-21T02:58:57.234Z,25.33
2022-11-21T03:01:24.823Z,24.03
2022-11-21T03:03:52.239Z,24.57
2022-11-21T03:06:19.859Z,24.93
2022-11-21T03:08:47.457Z,27.80
2022-11-21T03:11:14.883Z,26.50
2022-11-21T03:13:42.279Z,25.07
2022-11-21T03:16:11.069Z,26.13
2022-11-21T03:18:38.492Z,25.13
2022-11-21T03:21:05.911Z,25.27
2022-11-21T03:23:33.313Z,24.63
2022-11-21T03:26:00.746Z,25.30
2022-11-21T03:28:29.206Z,26.17
2022-11-21T03:30:56.645Z,26.10
2022-11-21T03:33:25.403Z,25.10
2022-11-21T03:35:52.804Z,25.53
2022-11-21T03:38:20.199Z,26.60
2022-11-21T03:40:47.586Z,26.27
2022-11-21T03:43:14.987Z,25.73
2022-11-21T03:45:42.407Z,25.83
2022-11-21T03:48:09.829Z,24.67
2022-11-21T03:50:38.615Z,26.07
2022-11-21T03:53:07.023Z,25.33
2022-11-21T03:55:34.440Z,25.70
2022-11-21T03:58:01.828Z,26.57
2022-11-21T04:00:29.251Z,26.00
2022-11-21T04:02:56.667Z,24.33
2022-11-21T04:05:24.088Z,24.50
2022-11-21T04:07:53.888Z,24.57
2022-11-21T04:10:21.876Z,24.70
2022-11-21T04:12:49.290Z,25.23
2022-11-21T04:15:17.019Z,25.43
2022-11-21T04:17:44.485Z,25.57
2022-11-21T04:20:12.554Z,25.90
2022-11-21T04:22:39.979Z,25.20
2022-11-21T04:25:09.369Z,25.17
2022-11-21T04:27:36.967Z,24.83
2022-11-21T04:30:05.114Z,24.37
2022-11-21T04:32:32.536Z,24.07
2022-11-21T04:34:59.923Z,23.57
2022-11-21T04:37:27.448Z,25.20
2022-11-21T04:39:54.848Z,25.10
2022-11-21T04:42:23.638Z,25.10
2022-11-21T04:44:51.051Z,24.87
2022-11-21T04:47:18.450Z,24.73
2022-11-21T04:49:45.881Z,24.40
2022-11-21T04:52:14.328Z,24.53
2022-11-21T04:54:41.759Z,23.50
2022-11-21T04:57:09.189Z,25.17
2022-11-21T04:59:37.959Z,25.87
2022-11-21T05:02:05.379Z,25.00
2022-11-21T05:04:32.822Z,24.53
2022-11-21T05:07:00.292Z,23.53
2022-11-21T05:09:27.819Z,24.07
2022-11-21T05:12:12.671Z,25.03
2022-11-21T05:14:41.434Z,25.30
2022-11-21T05:17:08.957Z,25.83
2022-11-21T05:19:36.396Z,24.80
2022-11-21T05:22:03.888Z,24.33
2022-11-21T05:24:31.307Z,24.53
2022-11-21T05:26:58.888Z,24.63
2022-11-21T05:29:28.218Z,24.53
2022-11-21T05:31:57.262Z,23.93
2022-11-21T05:34:24.675Z,23.57
2022-11-21T05:36:56.932Z,24.47
2022-11-21T05:39:24.442Z,24.63
2022-11-21T05:41:52.308Z,24.67
2022-11-21T05:44:18.894Z,24.43
2022-11-21T05:46:46.502Z,23.77
2022-11-21T05:49:15.444Z,22.93
2022-11-21T05:51:42.829Z,24.17
2022-11-21T05:54:13.552Z,26.13
2022-11-21T05:56:40.996Z,26.07
2022-11-21T05:59:09.626Z,29.63
2022-11-21T06:01:54.668Z,28.87
2022-11-21T06:04:23.502Z,28.80
2022-11-21T06:06:50.955Z,26.73
2022-11-21T06:09:18.515Z,26.87
2022-11-21T06:11:45.904Z,25.70
2022-11-21T06:14:13.290Z,24.93
2022-11-21T06:16:40.703Z,25.60
2022-11-21T06:19:08.275Z,24.33
2022-11-21T06:21:37.279Z,25.77
2022-11-21T06:24:05.492Z,23.57
2022-11-21T06:26:32.873Z,24.37
2022-11-21T06:29:00.287Z,22.37
2022-11-21T06:31:28.542Z,29.07
2022-11-21T06:33:57.396Z,29.73
2022-11-21T06:36:25.319Z,24.13
2022-11-21T06:38:55.929Z,28.90
2022-11-21T06:41:24.786Z,24.83
2022-11-21T06:43:52.239Z,24.87
2022-11-21T06:46:19.705Z,23.03
2022-11-21T06:48:47.159Z,24.23
2022-11-21T06:51:17.982Z,24.17
2022-11-21T06:53:45.987Z,23.30
2022-11-21T06:56:15.771Z,22.97
2022-11-21T06:58:43.270Z,23.77
2022-11-21T07:01:11.450Z,23.13
2022-11-21T07:03:38.905Z,23.77
2022-11-21T07:06:07.204Z,22.90
2022-11-21T07:08:36.327Z,22.67
2022-11-21T07:13:53.431Z,22.63
2022-11-21T07:16:20.854Z,22.13
2022-11-21T07:18:48.281Z,21.53
2022-11-21T07:21:15.747Z,22.20
2022-11-21T07:23:43.167Z,21.47
2022-11-21T07:26:11.258Z,21.30
2022-11-21T07:28:39.100Z,20.67
2022-11-21T07:31:13.554Z,21.60
2022-11-21T07:33:42.997Z,22.40
2022-11-21T07:36:10.499Z,22.43
2022-11-21T07:38:37.912Z,21.70
2022-11-21T07:41:05.351Z,21.27
2022-11-21T07:43:32.784Z,22.37
2022-11-21T07:46:00.301Z,23.77
2022-11-21T07:48:29.070Z,22.57
2022-11-21T07:50:56.520Z,22.43
2022-11-21T07:53:26.831Z,21.43
2022-11-21T07:55:54.237Z,23.20
2022-11-21T07:58:21.643Z,24.13
2022-11-21T08:00:49.111Z,23.27
2022-11-21T08:03:16.574Z,24.37
2022-11-21T08:05:45.625Z,23.63
2022-11-21T08:08:13.918Z,23.60
2022-11-21T08:10:43.118Z,21.77
2022-11-21T08:13:11.050Z,23.33
2022-11-21T08:15:38.789Z,21.77
2022-11-21T08:18:10.500Z,22.00
2022-11-21T08:20:38.294Z,21.97
2022-11-21T08:23:07.466Z,23.03
2022-11-21T08:25:35.076Z,22.47
2022-11-21T08:28:03.465Z,22.97
2022-11-21T08:30:31.029Z,23.17
2022-11-21T08:32:58.593Z,21.77
2022-11-21T08:35:26.036Z,23.43
2022-11-21T08:37:57.047Z,23.47
2022-11-21T08:40:26.627Z,22.17
2022-11-21T08:42:57.638Z,23.20
2022-11-21T08:45:25.652Z,24.23
2022-11-21T08:47:53.674Z,23.93
2022-11-21T08:50:21.343Z,24.60
2022-11-21T08:52:48.767Z,24.80
2022-11-21T08:55:16.703Z,22.77
2022-11-21T08:57:45.501Z,21.83
2022-11-21T09:00:14.183Z,22.80
2022-11-21T09:02:41.723Z,22.97
2022-11-21T09:05:10.319Z,23.77
2022-11-21T09:07:37.800Z,23.87
2022-11-21T09:10:06.267Z,23.83
2022-11-21T09:12:33.900Z,24.13
2022-11-21T09:15:20.371Z,23.67
2022-11-21T09:18:07.457Z,22.80
2022-11-21T09:20:39.850Z,23.10
2022-11-21T09:23:08.106Z,22.63
2022-11-21T09:25:35.701Z,22.77
2022-11-21T09:28:03.519Z,23.87
2022-11-21T09:30:32.316Z,24.20
2022-11-21T09:33:01.857Z,25.07
2022-11-21T09:35:32.502Z,24.40
2022-11-21T09:38:01.182Z,22.60
2022-11-21T09:40:30.026Z,23.40
2022-11-21T09:43:11.331Z,22.17
2022-11-21T09:45:43.251Z,21.87
2022-11-21T09:48:13.280Z,22.40
2022-11-21T09:50:43.635Z,22.47
2022-11-21T09:53:13.150Z,22.10
2022-11-21T09:55:47.361Z,22.37
2022-11-21T09:58:22.857Z,22.43
2022-11-21T10:00:52.847Z,23.63
2022-11-21T10:03:22.633Z,23.30
2022-11-21T10:05:53.520Z,22.60
2022-11-21T10:08:29.111Z,23.33
2022-11-21T10:10:59.446Z,22.83
2022-11-21T10:13:35.934Z,21.93
2022-11-21T10:16:10.375Z,23.37
2022-11-21T10:18:58.629Z,24.07
2022-11-21T10:21:37.679Z,24.37
2022-11-21T10:24:18.804Z,24.97
2022-11-21T10:26:51.723Z,25.93
2022-11-21T10:29:21.479Z,25.93
2022-11-21T10:31:50.509Z,25.90
2022-11-21T10:34:20.916Z,26.40
2022-11-21T10:36:50.803Z,26.30
2022-11-21T10:39:21.236Z,24.33
2022-11-21T10:41:51.751Z,26.17
2022-11-21T10:44:44.059Z,25.17
2022-11-21T10:47:27.144Z,25.37
2022-11-21T10:50:01.038Z,26.23
2022-11-21T10:52:32.074Z,25.33
2022-11-21T10:55:09.744Z,24.87
2022-11-21T10:57:42.350Z,26.00
2022-11-21T11:00:20.071Z,24.80
2022-11-21T11:03:11.132Z,24.63
2022-11-21T11:05:39.207Z,23.93
2022-11-21T11:08:08.990Z,24.70
2022-11-21T11:10:38.184Z,25.70
2022-11-21T11:13:45.850Z,24.83
2022-11-21T11:16:17.140Z,23.87
2022-11-21T11:18:51.634Z,23.83
2022-11-21T11:21:21.388Z,23.63
2022-11-21T11:23:49.636Z,23.17
2022-11-21T11:26:23.252Z,23.23
2022-11-21T11:28:51.116Z,23.70
2022-11-21T11:31:18.535Z,22.73
2022-11-21T11:33:55.535Z,24.03
2022-11-21T11:36:32.603Z,24.23
2022-11-21T11:39:00.929Z,24.03
2022-11-21T11:42:17.504Z,26.23
2022-11-21T11:45:10.480Z,25.63
2022-11-21T11:47:50.253Z,27.00
2022-11-21T11:50:28.237Z,26.23
2022-11-21T11:53:02.784Z,26.20
2022-11-21T11:55:37.874Z,26.27
2022-11-21T11:58:09.096Z,26.73
2022-11-21T12:00:41.690Z,26.77
2022-11-21T12:03:14.821Z,27.77
2022-11-21T12:05:52.539Z,28.03
2022-11-21T12:08:41.781Z,28.17
2022-11-21T12:11:44.498Z,27.27
2022-11-21T12:14:40.224Z,27.27
2022-11-21T12:17:09.987Z,26.67
2022-11-21T12:19:38.452Z,27.67
2022-11-21T12:22:11.450Z,27.77
2022-11-21T12:24:42.965Z,26.70
2022-11-21T12:27:22.159Z,26.67
2022-11-21T12:29:59.776Z,26.33
2022-11-21T12:32:36.660Z,25.93
2022-11-21T12:35:22.000Z,26.90
2022-11-21T12:37:56.187Z,25.13
2022-11-21T12:40:30.992Z,25.40
2022-11-21T12:43:08.950Z,25.27
2022-11-21T12:45:38.399Z,23.77
2022-11-21T12:48:31.221Z,24.10
2022-11-21T12:51:28.331Z,24.63
2022-11-21T12:54:20.595Z,24.70
2022-11-21T12:56:50.703Z,25.10
2022-11-21T12:59:20.093Z,25.83
2022-11-21T13:01:52.221Z,25.77
2022-11-21T13:04:22.934Z,24.83
2022-11-21T13:06:51.100Z,26.10
2022-11-21T13:09:21.416Z,22.97
2022-11-21T13:12:01.194Z,24.47
2022-11-21T13:14:34.516Z,26.20
2022-11-21T13:17:08.092Z,25.50
2022-11-21T13:19:42.576Z,26.40
2022-11-21T13:22:43.311Z,24.37
2022-11-21T13:25:12.903Z,26.70
2022-11-21T13:27:41.187Z,24.47
2022-11-21T13:30:27.505Z,25.53
2022-11-21T13:32:55.740Z,24.80
2022-11-21T13:36:06.007Z,24.20
2022-11-21T13:39:11.585Z,24.87
2022-11-21T13:44:41.624Z,24.13
2022-11-21T13:47:13.122Z,24.57
2022-11-21T13:49:47.373Z,27.07
2022-11-21T13:52:24.290Z,28.77
2022-11-21T13:55:14.480Z,27.80
2022-11-21T13:57:57.336Z,26.57
2022-11-21T14:00:31.228Z,26.33
2022-11-21T14:03:17.899Z,27.13
2022-11-21T14:06:06.491Z,25.63
2022-11-21T14:08:34.303Z,26.63
2022-11-21T14:11:20.175Z,27.13
2022-11-21T14:13:49.147Z,27.47
2022-11-21T14:16:26.083Z,25.63
2022-11-21T14:18:53.930Z,25.97
2022-11-21T14:21:26.407Z,25.03
2022-11-21T14:23:54.463Z,24.67
2022-11-21T14:26:22.698Z,24.40
2022-11-21T14:28:50.209Z,23.37
2022-11-21T14:31:17.659Z,23.87
2022-11-21T14:33:48.358Z,24.20
2022-11-21T14:36:17.372Z,24.50
2022-11-21T14:38:51.014Z,25.50
2022-11-21T14:41:28.661Z,26.33
2022-11-21T14:44:04.169Z,23.00
2022-11-21T14:46:32.932Z,24.10
2022-11-21T14:49:19.207Z,24.30
2022-11-21T14:51:48.915Z,24.63
2022-11-21T14:54:19.111Z,24.50
2022-11-21T14:56:48.194Z,23.73
2022-11-21T14:59:25.036Z,22.63
2022-11-21T15:01:57.495Z,23.93
2022-11-21T15:04:31.772Z,23.20
2022-11-21T15:06:59.623Z,23.10
2022-11-21T15:12:20.582Z,24.03
2022-11-21T15:14:49.480Z,22.13
2022-11-21T15:17:20.336Z,23.03
2022-11-21T15:20:09.962Z,22.77
2022-11-21T15:22:41.076Z,22.47
2022-11-21T15:25:10.434Z,22.53
2022-11-21T15:27:37.859Z,23.17
2022-11-21T15:30:16.712Z,22.07
2022-11-21T15:32:59.600Z,22.87
2022-11-21T15:35:47.420Z,21.57
2022-11-21T15:38:19.805Z,22.00
2022-11-21T15:41:04.937Z,22.80
2022-11-21T15:43:37.429Z,22.67
2022-11-21T15:46:06.268Z,21.27
2022-11-21T15:48:33.743Z,22.63
2022-11-21T15:51:02.550Z,22.50
2022-11-21T15:53:30.011Z,22.50
2022-11-21T15:55:57.411Z,21.77
2022-11-21T15:58:24.846Z,22.23
2022-11-21T16:00:52.354Z,21.40
2022-11-21T16:03:19.807Z,21.67
2022-11-21T16:05:48.060Z,20.77
2022-11-21T16:08:16.924Z,21.03
2022-11-21T16:10:48.187Z,20.67
2022-11-21T16:13:16.595Z,21.70
2022-11-21T16:15:44.020Z,22.27
2022-11-21T16:18:11.428Z,21.03
2022-11-21T16:20:38.836Z,22.27
2022-11-21T16:23:06.352Z,21.43
2022-11-21T16:25:35.137Z,21.33
2022-11-21T16:28:06.982Z,21.83
2022-11-21T16:30:34.867Z,23.23
2022-11-21T16:33:03.085Z,22.73
2022-11-21T16:35:30.519Z,20.20
2022-11-21T16:37:58.015Z,20.97
2022-11-21T16:40:27.898Z,22.87
2022-11-21T16:43:08.723Z,21.23
2022-11-21T16:45:36.227Z,20.43
2022-11-21T16:48:03.847Z,21.93
2022-11-21T16:50:31.484Z,22.93
2022-11-21T16:52:59.257Z,21.20
2022-11-21T16:55:26.756Z,21.70
2022-11-21T16:57:54.828Z,22.03
2022-11-21T17:00:24.253Z,21.17
2022-11-21T17:02:51.670Z,19.50
2022-11-21T17:05:19.221Z,21.87
2022-11-21T17:07:47.331Z,21.17
2022-11-21T17:10:15.345Z,20.97
2022-11-21T17:12:44.038Z,19.00
2022-11-21T17:15:13.894Z,21.13
2022-11-21T17:17:42.980Z,20.80
2022-11-21T17:20:11.366Z,19.53
2022-11-21T17:22:39.025Z,19.53
2022-11-21T17:25:07.450Z,20.07
2022-11-21T17:27:34.960Z,22.10
2022-11-21T17:30:02.494Z,17.97
2022-11-21T17:32:29.984Z,19.70
2022-11-21T17:34:58.889Z,18.80
2022-11-21T17:37:26.323Z,19.40
2022-11-21T17:39:54.099Z,16.90
2022-11-21T17:42:21.504Z,20.37
2022-11-21T17:44:49.144Z,17.53
2022-11-21T17:47:16.686Z,19.20
2022-11-21T17:49:44.102Z,19.67
2022-11-21T17:52:12.947Z,19.77
2022-11-21T17:54:40.396Z,19.53
2022-11-21T17:57:08.015Z,18.43
2022-11-21T17:59:38.356Z,15.23
2022-11-21T18:02:05.943Z,17.80
2022-11-21T18:04:34.344Z,18.63
2022-11-21T18:07:01.799Z,19.57
2022-11-21T18:09:30.822Z,18.97
2022-11-21T18:11:58.556Z,19.60
2022-11-21T18:14:26.592Z,18.53
2022-11-21T18:16:54.970Z,16.97
2022-11-21T18:19:22.861Z,18.33
2022-11-21T18:21:51.671Z,17.03
2022-11-21T18:24:19.292Z,20.63
2022-11-21T18:26:48.058Z,19.10
2022-11-21T18:32:03.163Z,16.63
2022-11-21T18:34:30.659Z,17.27
2022-11-21T18:36:58.078Z,18.30
2022-11-21T18:39:27.072Z,19.63
2022-11-21T18:41:55.976Z,19.47
2022-11-21T18:44:23.570Z,19.10
2022-11-21T18:46:51.228Z,17.23
2022-11-21T18:49:18.852Z,18.47
2022-11-21T18:51:46.454Z,18.53
2022-11-21T18:54:13.887Z,18.73
2022-11-21T18:56:41.539Z,19.47
2022-11-21T18:59:10.777Z,17.60
2022-11-21T19:01:39.308Z,20.27
2022-11-21T19:04:07.111Z,18.80
2022-11-21T19:06:35.329Z,19.13
2022-11-21T19:09:02.895Z,20.03
2022-11-21T19:11:30.842Z,19.70
2022-11-21T19:13:59.130Z,20.63
2022-11-21T19:16:30.803Z,20.87
2022-11-21T19:21:47.063Z,20.73
2022-11-21T19:24:15.994Z,21.23
2022-11-21T19:26:43.811Z,21.83
2022-11-21T19:29:12.048Z,20.43
2022-11-21T19:31:45.752Z,22.67
2022-11-21T19:34:13.939Z,21.27
2022-11-21T19:36:41.739Z,20.90
2022-11-21T19:39:09.835Z,20.93
2022-11-21T19:41:37.469Z,22.17
2022-11-21T19:44:05.311Z,22.83
2022-11-21T19:46:34.569Z,23.23
2022-11-21T19:49:04.395Z,22.83
2022-11-21T19:51:33.757Z,23.30
2022-11-21T19:54:02.815Z,24.57
2022-11-21T19:56:30.481Z,25.27
2022-11-21T19:58:58.555Z,23.53
2022-11-21T20:01:31.039Z,22.57
2022-11-21T20:04:00.207Z,23.87
2022-11-21T20:06:31.057Z,23.43
2022-11-21T20:09:00.131Z,23.40
2022-11-21T20:11:28.742Z,22.43
2022-11-21T20:13:56.231Z,24.50
2022-11-21T20:16:25.919Z,24.83
2022-11-21T20:18:56.826Z,23.03
2022-11-21T20:21:24.701Z,22.80
2022-11-21T20:23:53.815Z,23.63
2022-11-21T20:26:22.607Z,22.60
2022-11-21T20:28:51.332Z,25.17
2022-11-21T20:31:21.008Z,23.07
2022-11-21T20:33:50.139Z,22.63
2022-11-21T20:36:21.816Z,21.43
2022-11-21T20:38:50.940Z,22.27
2022-11-21T20:41:20.052Z,20.03
2022-11-21T20:46:35.483Z,20.77
2022-11-21T20:49:03.115Z,18.87
2022-11-21T20:54:20.835Z,18.40
2022-11-21T20:56:49.613Z,17.77
2022-11-21T20:59:17.100Z,19.10
2022-11-21T21:01:44.567Z,18.30
2022-11-21T21:04:12.151Z,18.33
2022-11-21T21:06:39.942Z,18.50
2022-11-21T21:09:07.480Z,18.87
2022-11-21T21:11:51.545Z,17.80
2022-11-21T21:14:21.861Z,16.73
2022-11-21T21:16:49.573Z,17.30
2022-11-21T21:19:17.321Z,18.27
2022-11-21T21:21:44.847Z,18.43
2022-11-21T21:24:12.972Z,18.90
2022-11-21T21:26:43.404Z,17.70
2022-11-21T21:29:12.691Z,19.10
2022-11-21T21:31:45.506Z,17.83
2022-11-21T21:34:17.355Z,18.70
2022-11-21T21:36:44.777Z,20.23
2022-11-21T21:39:12.354Z,18.60
2022-11-21T21:41:44.182Z,19.70
2022-11-21T21:44:11.596Z,18.93
2022-11-21T21:46:39.006Z,20.13
2022-11-21T21:49:07.756Z,23.90
2022-11-21T21:51:36.910Z,21.33
2022-11-21T21:54:04.574Z,19.93
2022-11-21T21:56:32.038Z,19.97
2022-11-21T21:58:59.884Z,19.83
2022-11-21T22:01:29.509Z,19.80
2022-11-21T22:03:58.446Z,20.50
2022-11-21T22:06:27.550Z,20.20
2022-11-21T22:08:55.911Z,20.10
2022-11-21T22:11:24.966Z,21.17
2022-11-21T22:13:54.043Z,18.03
2022-11-21T22:16:21.705Z,18.83
2022-11-21T22:18:49.281Z,18.17
2022-11-21T22:21:17.963Z,18.40
2022-11-21T22:24:17.309Z,19.77
2022-11-21T22:26:34.684Z,17.77
2022-11-21T22:29:02.169Z,16.43
2022-11-21T22:31:31.184Z,17.87
2022-11-21T22:33:58.705Z,19.03
2022-11-21T22:36:26.606Z,18.03
2022-11-21T22:38:55.847Z,19.07
2022-11-21T22:41:24.343Z,18.50
2022-11-21T22:43:53.380Z,16.53
2022-11-21T22:46:21.386Z,16.43
2022-11-21T22:48:49.299Z,16.87
2022-11-21T22:51:19.402Z,17.40
2022-11-21T22:53:49.645Z,17.97
2022-11-21T22:56:20.026Z,16.33
2022-11-21T22:58:48.151Z,17.00
2022-11-21T23:01:17.349Z,19.00
2022-11-21T23:03:45.327Z,18.23
2022-11-21T23:06:14.263Z,17.37
2022-11-21T23:08:42.407Z,18.10
2022-11-21T23:11:11.564Z,19.00
2022-11-21T23:13:42.514Z,18.90
2022-11-21T23:16:10.811Z,19.47
2022-11-21T23:18:38.466Z,19.33
2022-11-21T23:21:06.283Z,20.60
2022-11-21T23:23:33.728Z,19.93
2022-11-21T23:26:01.450Z,18.83
2022-11-21T23:28:29.063Z,18.43
2022-11-21T23:30:58.051Z,18.50
2022-11-21T23:33:25.582Z,20.77
2022-11-21T23:35:53.008Z,20.20
2022-11-21T23:38:20.696Z,19.67
2022-11-21T23:40:48.800Z,22.63
2022-11-21T23:43:16.772Z,21.30
2022-11-21T23:45:45.244Z,21.87
2022-11-21T23:48:13.981Z,21.97
2022-11-21T23:50:41.501Z,22.60
2022-11-21T23:53:09.758Z,21.23
2022-11-21T23:55:37.357Z,15.83
2022-11-21T23:58:05.029Z,15.50
